Time;durP1;ratioP1;P1;durP2;ratioP2;P2;SDS_P1;SDS_P2;PMS_P1;PMS_P2;Temp;Humidity;BMP_temperature;BMP_pressure;BME280_temperature;BME280_humidity;BME280_pressure;Samples;Min_cycle;Max_cycle;Signal;HPM_P1;HPM_P2
2023/08/10 00:00:29;;;;;;;4.93;2.43;;;9.90;99.90;;;;;;5027857;28;20511;-79
2023/08/10 00:02:56;;;;;;;6.37;2.53;;;9.80;99.90;;;;;;5027737;28;20474;-79
2023/08/10 00:05:24;;;;;;;6.33;2.50;;;9.80;99.90;;;;;;5027555;28;20229;-78
2023/08/10 00:07:51;;;;;;;5.87;2.37;;;9.80;99.90;;;;;;5028199;28;20231;-79
2023/08/10 00:10:18;;;;;;;6.20;2.47;;;9.80;99.90;;;;;;5027327;28;20239;-78
2023/08/10 00:12:45;;;;;;;6.80;2.37;;;9.80;99.90;;;;;;5030775;28;20227;-78
2023/08/10 00:15:11;;;;;;;5.40;2.40;;;9.80;99.90;;;;;;5045086;28;20315;-78
2023/08/10 00:17:38;;;;;;;7.47;2.90;;;9.90;99.90;;;;;;5049940;28;20279;-79
2023/08/10 00:20:07;;;;;;;4.27;2.10;;;9.90;99.90;;;;;;5026292;28;20606;-79
2023/08/10 00:22:35;;;;;;;5.77;2.70;;;9.90;99.90;;;;;;5042413;28;20226;-79
2023/08/10 00:25:02;;;;;;;9.43;2.73;;;9.90;99.90;;;;;;5044684;28;20419;-79
2023/08/10 00:27:29;;;;;;;4.80;2.10;;;10.00;99.90;;;;;;5023500;28;20228;-79
2023/08/10 00:29:56;;;;;;;6.60;2.47;;;10.00;99.90;;;;;;5025503;28;20445;-79
2023/08/10 00:32:23;;;;;;;7.37;2.60;;;10.00;99.90;;;;;;5044260;28;20753;-79
2023/08/10 00:34:50;;;;;;;6.70;2.80;;;9.90;99.90;;;;;;5050082;28;20235;-79
2023/08/10 00:37:16;;;;;;;4.40;2.27;;;10.00;99.90;;;;;;5046578;28;20267;-79
2023/08/10 00:39:44;;;;;;;6.50;2.47;;;9.90;99.90;;;;;;5069424;28;20600;-79
2023/08/10 00:42:12;;;;;;;5.10;2.37;;;9.90;99.90;;;;;;5049683;28;20395;-79
2023/08/10 00:44:40;;;;;;;4.23;2.20;;;9.90;99.90;;;;;;5042164;28;20228;-79
2023/08/10 00:47:07;;;;;;;4.90;2.60;;;9.90;99.90;;;;;;5045784;28;20244;-79
2023/08/10 00:49:34;;;;;;;5.00;2.40;;;9.80;99.90;;;;;;5035103;28;20259;-79
2023/08/10 00:52:02;;;;;;;3.53;2.00;;;9.80;99.90;;;;;;5046798;28;20570;-79
2023/08/10 00:54:28;;;;;;;5.40;2.40;;;9.80;99.90;;;;;;5045570;28;20230;-79
2023/08/10 00:56:56;;;;;;;6.90;2.53;;;9.80;99.90;;;;;;5046085;28;20234;-79
2023/08/10 00:59:24;;;;;;;5.63;2.00;;;9.70;99.90;;;;;;5047648;28;20239;-79
2023/08/10 01:01:51;;;;;;;10.03;3.33;;;9.70;99.90;;;;;;5076785;28;20231;-79
2023/08/10 01:04:17;;;;;;;4.80;2.20;;;9.70;99.90;;;;;;5045622;28;20680;-79
2023/08/10 01:06:53;;;;;;;6.07;2.57;;;9.60;99.90;;;;;;5036238;28;20224;-79
2023/08/10 01:09:32;;;;;;;5.37;2.57;;;9.60;99.90;;;;;;5018161;28;20527;-78
2023/08/10 01:12:18;;;;;;;5.50;1.90;;;9.60;99.90;;;;;;5028596;28;20448;-79
2023/08/10 01:14:52;;;;;;;7.80;2.73;;;9.50;99.90;;;;;;5027291;28;20384;-79
2023/08/10 01:17:27;;;;;;;7.17;2.50;;;9.50;99.90;;;;;;5026565;28;20248;-79
2023/08/10 01:19:55;;;;;;;6.87;2.70;;;9.50;99.90;;;;;;5027880;28;20220;-79
2023/08/10 01:22:29;;;;;;;6.93;3.20;;;9.40;99.90;;;;;;5024850;28;20235;-79
2023/08/10 01:25:03;;;;;;;7.80;2.27;;;9.40;99.90;;;;;;5032321;28;20295;-79
2023/08/10 01:27:32;;;;;;;7.83;2.87;;;9.40;99.90;;;;;;5037193;28;20241;-79
2023/08/10 01:30:00;;;;;;;7.00;2.47;;;9.30;99.90;;;;;;5032683;28;20660;-79
2023/08/10 01:32:28;;;;;;;9.63;2.60;;;9.30;99.90;;;;;;5021616;28;20228;-79
2023/08/10 01:34:55;;;;;;;6.60;2.50;;;9.30;99.90;;;;;;5030640;28;20720;-79
2023/08/10 01:37:22;;;;;;;3.57;2.27;;;9.30;99.90;;;;;;5033644;28;20702;-79
2023/08/10 01:39:50;;;;;;;6.77;2.87;;;9.20;99.90;;;;;;5028345;28;20639;-79
2023/08/10 01:42:18;;;;;;;5.27;2.20;;;9.20;99.90;;;;;;5032346;28;20313;-80
2023/08/10 01:44:45;;;;;;;4.10;2.40;;;9.20;99.90;;;;;;5019200;28;20757;-80
2023/08/10 01:47:18;;;;;;;5.77;2.70;;;9.10;99.90;;;;;;5024563;28;20232;-79
2023/08/10 01:49:48;;;;;;;7.50;2.53;;;9.10;99.90;;;;;;5026778;28;20244;-79
2023/08/10 01:52:17;;;;;;;6.77;2.73;;;9.10;99.90;;;;;;5021603;28;20239;-79
2023/08/10 01:54:45;;;;;;;8.33;2.50;;;9.10;99.90;;;;;;5023771;28;20319;-79
2023/08/10 01:57:12;;;;;;;8.10;2.73;;;9.00;99.90;;;;;;5026803;28;20282;-79
2023/08/10 01:59:40;;;;;;;6.57;2.67;;;9.10;99.90;;;;;;5021864;28;20239;-77
2023/08/10 02:02:07;;;;;;;8.17;2.80;;;9.10;99.90;;;;;;5037220;28;20217;-77
2023/08/10 02:04:34;;;;;;;6.17;2.50;;;9.00;99.90;;;;;;5045921;28;20219;-77
2023/08/10 02:07:01;;;;;;;5.30;2.63;;;9.00;99.90;;;;;;5046778;28;20225;-78
2023/08/10 02:09:28;;;;;;;6.17;2.97;;;9.00;99.90;;;;;;5044754;28;20813;-77
2023/08/10 02:11:55;;;;;;;6.40;2.60;;;9.00;99.90;;;;;;5043420;28;20359;-78
2023/08/10 02:14:22;;;;;;;6.20;2.80;;;9.00;99.90;;;;;;5040733;28;20231;-77
2023/08/10 02:16:49;;;;;;;5.83;2.80;;;9.00;99.90;;;;;;5045509;28;20439;-77
2023/08/10 02:19:16;;;;;;;5.07;2.67;;;9.00;99.90;;;;;;5038144;28;20231;-77
2023/08/10 02:21:43;;;;;;;4.87;2.50;;;9.00;99.90;;;;;;5038713;28;20636;-78
2023/08/10 02:24:10;;;;;;;5.50;1.93;;;9.00;99.90;;;;;;5041700;28;20223;-77
2023/08/10 02:26:37;;;;;;;8.50;2.77;;;9.00;99.90;;;;;;5047256;28;20613;-78
2023/08/10 02:29:05;;;;;;;4.87;2.60;;;9.00;99.90;;;;;;5045377;28;20278;-78
2023/08/10 02:31:32;;;;;;;5.63;2.40;;;9.00;99.90;;;;;;5036200;28;20599;-77
2023/08/10 02:34:01;;;;;;;7.20;2.67;;;9.00;99.90;;;;;;5039543;28;20276;-78
2023/08/10 02:36:28;;;;;;;4.30;2.53;;;9.00;99.90;;;;;;5038855;28;20740;-78
2023/08/10 02:38:56;;;;;;;5.63;2.63;;;8.90;99.90;;;;;;5040014;28;20224;-77
2023/08/10 02:41:23;;;;;;;4.83;2.60;;;8.90;99.90;;;;;;5035785;28;20220;-78
2023/08/10 02:43:51;;;;;;;3.83;2.40;;;8.90;99.90;;;;;;5045883;28;20262;-77
2023/08/10 02:46:18;;;;;;;4.50;2.87;;;8.90;99.90;;;;;;5035681;28;20317;-77
2023/08/10 02:48:45;;;;;;;5.47;2.67;;;8.90;99.90;;;;;;5042611;28;20234;-76
2023/08/10 02:51:14;;;;;;;7.43;2.70;;;8.80;99.90;;;;;;5038724;28;20267;-79
2023/08/10 02:53:41;;;;;;;4.70;2.37;;;8.90;99.90;;;;;;5046187;28;20264;-81
2023/08/10 02:56:08;;;;;;;5.87;2.70;;;8.80;99.90;;;;;;5038450;28;20602;-81
2023/08/10 02:58:35;;;;;;;4.33;2.33;;;8.80;99.90;;;;;;5044651;28;20241;-81
2023/08/10 03:01:07;;;;;;;7.87;2.40;;;8.90;99.90;;;;;;5035214;28;20989;-80
2023/08/10 03:03:35;;;;;;;6.57;2.70;;;8.90;99.90;;;;;;5037356;28;20613;-80
2023/08/10 03:06:02;;;;;;;4.87;2.60;;;8.90;99.90;;;;;;5040524;28;20226;-81
2023/08/10 03:08:31;;;;;;;5.83;3.07;;;8.90;99.90;;;;;;5048562;28;20224;-80
2023/08/10 03:10:59;;;;;;;6.67;2.53;;;8.90;99.90;;;;;;5043848;28;20658;-81
2023/08/10 03:13:26;;;;;;;4.33;2.37;;;8.90;99.90;;;;;;5047832;28;20281;-80
2023/08/10 03:15:55;;;;;;;4.23;2.50;;;8.90;99.90;;;;;;5044954;28;20227;-81
2023/08/10 03:18:22;;;;;;;5.47;2.73;;;8.80;99.90;;;;;;5042537;28;20362;-80
2023/08/10 03:20:49;;;;;;;5.57;2.60;;;8.80;99.90;;;;;;5041026;28;20232;-80
2023/08/10 03:23:16;;;;;;;6.60;2.63;;;8.80;99.90;;;;;;5058843;28;20773;-80
2023/08/10 03:25:44;;;;;;;8.43;2.27;;;8.80;99.90;;;;;;5044246;28;20487;-80
2023/08/10 03:28:12;;;;;;;7.30;2.87;;;8.70;99.90;;;;;;5037885;28;20230;-80
2023/08/10 03:30:40;;;;;;;3.50;2.23;;;8.70;99.90;;;;;;5040277;28;20418;-80
2023/08/10 03:33:07;;;;;;;3.73;2.20;;;8.60;99.90;;;;;;5044131;28;20622;-80
2023/08/10 03:35:35;;;;;;;6.03;2.40;;;8.60;99.90;;;;;;5046044;28;20231;-80
2023/08/10 03:38:02;;;;;;;5.20;2.33;;;8.50;99.90;;;;;;5059145;28;20222;-80
2023/08/10 03:40:29;;;;;;;3.70;1.90;;;8.50;99.90;;;;;;5031879;28;20251;-80
2023/08/10 03:42:57;;;;;;;6.27;2.63;;;8.40;99.90;;;;;;5029427;28;20228;-80
2023/08/10 03:45:24;;;;;;;4.47;2.20;;;8.40;99.90;;;;;;5031006;28;20235;-80
2023/08/10 03:47:50;;;;;;;6.27;2.67;;;8.40;99.90;;;;;;5044539;28;20277;-80
2023/08/10 03:50:17;;;;;;;10.83;2.80;;;8.30;99.90;;;;;;5038602;28;20229;-80
2023/08/10 03:52:44;;;;;;;4.67;2.50;;;8.30;99.90;;;;;;5038674;28;20461;-80
2023/08/10 03:55:11;;;;;;;5.83;2.53;;;8.30;99.90;;;;;;5042007;28;20227;-81
2023/08/10 03:57:38;;;;;;;5.87;2.43;;;8.30;99.90;;;;;;5045783;28;20317;-80
2023/08/10 04:00:10;;;;;;;7.17;2.30;;;8.30;99.90;;;;;;5048759;28;20222;-81
2023/08/10 04:02:43;;;;;;;6.07;2.53;;;8.30;99.90;;;;;;5049872;28;20332;-81
2023/08/10 04:05:11;;;;;;;8.57;2.80;;;8.40;99.90;;;;;;5037699;28;20228;-80
2023/08/10 04:07:39;;;;;;;5.70;2.43;;;8.40;99.90;;;;;;5040472;28;20601;-81
2023/08/10 04:10:06;;;;;;;4.77;2.53;;;8.40;99.90;;;;;;5029484;28;20528;-81
2023/08/10 04:12:33;;;;;;;4.37;2.17;;;8.50;99.90;;;;;;5025050;28;20287;-80
2023/08/10 04:15:00;;;;;;;4.90;2.60;;;8.50;99.90;;;;;;5041320;28;20705;-81
2023/08/10 04:17:28;;;;;;;8.90;2.90;;;8.60;99.90;;;;;;5041351;28;20234;-81
2023/08/10 04:19:56;;;;;;;7.77;3.00;;;8.60;99.90;;;;;;5044235;28;20265;-81
2023/08/10 04:22:22;;;;;;;5.53;2.60;;;8.70;99.90;;;;;;5042819;28;20646;-80
2023/08/10 04:24:50;;;;;;;26.27;4.03;;;8.80;99.90;;;;;;5047367;28;20319;-80
2023/08/10 04:27:18;;;;;;;6.47;2.80;;;8.80;99.90;;;;;;5049583;28;20227;-80
2023/08/10 04:29:45;;;;;;;8.00;3.10;;;8.90;99.90;;;;;;5047865;28;20224;-80
2023/08/10 04:32:12;;;;;;;12.10;2.97;;;9.00;99.90;;;;;;5050981;28;20224;-83
2023/08/10 04:34:41;;;;;;;8.70;2.80;;;9.10;99.90;;;;;;5047026;28;20230;-80
2023/08/10 04:37:08;;;;;;;5.83;2.70;;;9.10;99.90;;;;;;5047146;28;20294;-82
2023/08/10 04:39:34;;;;;;;8.87;3.50;;;9.20;99.90;;;;;;5047282;28;20315;-81
2023/08/10 04:42:01;;;;;;;6.30;3.83;;;9.30;99.90;;;;;;5045239;28;20762;-81
2023/08/10 04:44:28;;;;;;;5.87;3.20;;;9.40;99.90;;;;;;5044195;28;20222;-81
2023/08/10 04:46:54;;;;;;;6.40;2.63;;;9.40;99.90;;;;;;5047717;28;20242;-80
2023/08/10 04:49:23;;;;;;;6.20;2.80;;;9.50;99.90;;;;;;5040950;28;20233;-80
2023/08/10 04:51:51;;;;;;;7.13;2.80;;;9.60;99.90;;;;;;5040798;28;20225;-80
2023/08/10 04:54:18;;;;;;;6.17;2.60;;;9.70;99.90;;;;;;5040485;28;20224;-81
2023/08/10 04:56:46;;;;;;;4.17;2.73;;;9.70;99.90;;;;;;5040908;28;20286;-80
2023/08/10 04:59:12;;;;;;;8.17;2.73;;;9.80;99.90;;;;;;5040281;28;20261;-77
2023/08/10 05:01:39;;;;;;;8.03;2.83;;;9.90;99.90;;;;;;5038918;28;20265;-78
2023/08/10 05:04:07;;;;;;;6.37;3.33;;;10.00;99.90;;;;;;5041499;28;20228;-77
2023/08/10 05:06:34;;;;;;;8.70;2.83;;;10.00;99.90;;;;;;5043825;28;20311;-79
2023/08/10 05:09:04;;;;;;;5.83;2.77;;;10.10;99.90;;;;;;5043086;28;20232;-79
2023/08/10 05:11:31;;;;;;;6.37;2.47;;;10.20;99.90;;;;;;5035363;28;20237;-78
2023/08/10 05:13:58;;;;;;;5.00;2.87;;;10.30;99.90;;;;;;5034354;28;20267;-78
2023/08/10 05:16:25;;;;;;;6.90;3.07;;;10.40;99.90;;;;;;5036530;28;20227;-78
2023/08/10 05:18:52;;;;;;;5.00;2.63;;;10.50;99.90;;;;;;5043151;28;20305;-79
2023/08/10 05:21:19;;;;;;;6.63;2.80;;;10.50;99.90;;;;;;5047235;28;20249;-77
2023/08/10 05:23:46;;;;;;;7.03;3.00;;;10.60;99.90;;;;;;5022392;28;20239;-78
2023/08/10 05:26:14;;;;;;;6.80;2.60;;;10.70;99.90;;;;;;5019069;28;20304;-79
2023/08/10 05:28:41;;;;;;;10.07;3.23;;;10.80;99.90;;;;;;5020008;28;20240;-77
2023/08/10 05:31:08;;;;;;;5.47;2.63;;;10.80;99.90;;;;;;5017988;28;20227;-78
2023/08/10 05:33:35;;;;;;;6.87;3.00;;;10.90;99.90;;;;;;5016485;28;20229;-78
2023/08/10 05:36:02;;;;;;;6.00;2.70;;;11.10;99.90;;;;;;5024994;28;20717;-77
2023/08/10 05:38:29;;;;;;;6.77;3.10;;;11.10;99.90;;;;;;5023226;28;20238;-79
2023/08/10 05:40:56;;;;;;;9.63;2.70;;;11.30;99.90;;;;;;5022631;28;20208;-79
2023/08/10 05:43:24;;;;;;;9.63;3.40;;;11.40;99.90;;;;;;5025162;28;20299;-78
2023/08/10 05:45:51;;;;;;;5.40;2.63;;;11.50;99.90;;;;;;5027362;28;20229;-77
2023/08/10 05:48:17;;;;;;;6.23;3.10;;;11.60;99.90;;;;;;5026534;28;20242;-79
2023/08/10 05:50:44;;;;;;;6.27;2.87;;;11.80;99.90;;;;;;5023437;28;20223;-78
2023/08/10 05:53:11;;;;;;;5.67;2.63;;;11.90;99.90;;;;;;5035980;28;20221;-79
2023/08/10 05:55:38;;;;;;;5.43;2.60;;;12.00;99.90;;;;;;5046079;28;20306;-77
2023/08/10 05:58:05;;;;;;;8.80;2.93;;;12.00;99.90;;;;;;5044650;28;20231;-78
2023/08/10 06:00:33;;;;;;;8.60;2.80;;;12.20;99.90;;;;;;5040404;28;20248;-79
2023/08/10 06:02:59;;;;;;;11.33;3.53;;;12.20;99.90;;;;;;5045474;28;20217;-79
2023/08/10 06:05:26;;;;;;;5.33;2.77;;;12.40;99.90;;;;;;5044252;28;20230;-79
2023/08/10 06:07:53;;;;;;;7.63;2.30;;;12.40;99.90;;;;;;5045630;28;20609;-78
2023/08/10 06:10:20;;;;;;;9.57;2.93;;;12.60;99.90;;;;;;5058739;28;20686;-79
2023/08/10 06:12:47;;;;;;;9.13;3.00;;;12.70;99.90;;;;;;5045590;28;20659;-79
2023/08/10 06:15:14;;;;;;;5.37;2.37;;;12.80;99.90;;;;;;5045807;28;20251;-79
2023/08/10 06:17:42;;;;;;;8.93;2.50;;;13.00;99.90;;;;;;5046641;28;20310;-79
2023/08/10 06:20:13;;;;;;;5.97;2.40;;;13.10;99.90;;;;;;5041974;28;20221;-77
2023/08/10 06:22:40;;;;;;;10.57;2.43;;;13.20;99.90;;;;;;5045423;28;20254;-78
2023/08/10 06:25:09;;;;;;;4.23;1.90;;;13.30;99.90;;;;;;5042461;28;20218;-79
2023/08/10 06:27:36;;;;;;;6.00;2.00;;;13.30;99.90;;;;;;5045748;28;20499;-78
2023/08/10 06:30:03;;;;;;;7.63;2.07;;;13.40;99.90;;;;;;5043518;28;20228;-79
2023/08/10 06:32:31;;;;;;;9.03;2.20;;;13.50;99.90;;;;;;5045750;28;20304;-78
2023/08/10 06:34:59;;;;;;;7.10;2.10;;;13.60;99.90;;;;;;5045220;28;20224;-79
2023/08/10 06:37:26;;;;;;;8.03;2.33;;;13.70;99.90;;;;;;5043013;28;20742;-77
2023/08/10 06:39:53;;;;;;;5.17;2.30;;;13.90;99.90;;;;;;5042415;28;20793;-78
2023/08/10 06:42:19;;;;;;;6.40;2.00;;;14.00;99.90;;;;;;5041303;28;20233;-79
2023/08/10 06:44:53;;;;;;;8.33;2.10;;;14.10;99.90;;;;;;5045066;28;20225;-80
2023/08/10 06:47:20;;;;;;;5.80;2.30;;;14.30;99.90;;;;;;5049025;28;20228;-81
2023/08/10 06:49:46;;;;;;;10.00;2.40;;;14.40;99.90;;;;;;5047583;28;20237;-81
2023/08/10 06:52:14;;;;;;;6.60;1.80;;;14.60;99.90;;;;;;5045316;28;20232;-81
2023/08/10 06:54:41;;;;;;;7.57;2.60;;;14.70;99.90;;;;;;5040809;28;20235;-81
2023/08/10 06:57:08;;;;;;;9.47;2.30;;;14.80;99.90;;;;;;5047337;28;20223;-81
2023/08/10 06:59:34;;;;;;;13.27;2.17;;;15.00;99.90;;;;;;5052177;28;20265;-82
2023/08/10 07:02:02;;;;;;;8.30;1.90;;;15.10;99.90;;;;;;5045682;28;20223;-82
2023/08/10 07:04:28;;;;;;;5.47;1.90;;;15.20;99.90;;;;;;5047881;28;20281;-81
2023/08/10 07:06:56;;;;;;;8.60;2.60;;;15.30;99.90;;;;;;5047576;28;20620;-81
2023/08/10 07:09:24;;;;;;;4.83;1.70;;;15.40;99.90;;;;;;5069564;28;20230;-82
2023/08/10 07:11:51;;;;;;;6.13;2.10;;;15.60;99.90;;;;;;5040369;28;20230;-82
2023/08/10 07:14:17;;;;;;;6.40;2.00;;;15.70;99.90;;;;;;5040536;28;20237;-82
2023/08/10 07:16:44;;;;;;;6.57;1.90;;;15.80;99.90;;;;;;5032478;28;20254;-82
2023/08/10 07:19:11;;;;;;;9.77;2.10;;;15.90;99.90;;;;;;5030647;28;20243;-82
2023/08/10 07:21:37;;;;;;;6.37;1.50;;;16.10;99.90;;;;;;5031619;28;20722;-81
2023/08/10 07:24:05;;;;;;;7.57;2.40;;;16.30;99.90;;;;;;5027735;28;20282;-83
2023/08/10 07:26:34;;;;;;;5.30;1.87;;;16.50;99.90;;;;;;5030841;28;20224;-83
2023/08/10 07:29:00;;;;;;;5.90;1.70;;;16.70;99.90;;;;;;5028789;28;20238;-82
2023/08/10 07:31:30;;;;;;;8.03;1.90;;;17.00;99.90;;;;;;5030864;28;20227;-82
2023/08/10 07:33:56;;;;;;;6.82;2.05;;;17.20;99.90;;;;;;5031902;28;20239;-82
2023/08/10 07:36:23;;;;;;;5.37;1.60;;;17.70;99.90;;;;;;5041531;28;20224;-82
2023/08/10 07:38:50;;;;;;;9.60;2.15;;;18.20;99.90;;;;;;5050016;28;20910;-81
2023/08/10 07:41:17;;;;;;;4.78;1.75;;;18.70;99.90;;;;;;5046008;28;20228;-81
2023/08/10 07:43:45;;;;;;;5.82;1.70;;;19.20;99.90;;;;;;5030316;28;20636;-82
2023/08/10 07:46:11;;;;;;;5.20;1.52;;;19.80;99.90;;;;;;5045622;28;20780;-83
2023/08/10 07:48:38;;;;;;;6.30;1.98;;;20.40;99.90;;;;;;5046183;28;20254;-84
2023/08/10 07:51:05;;;;;;;6.07;1.63;;;21.00;99.90;;;;;;5045222;28;20694;-84
2023/08/10 07:53:32;;;;;;;5.15;1.70;;;21.60;99.90;;;;;;5048083;28;20873;-80
2023/08/10 07:55:59;;;;;;;5.72;1.70;;;22.10;99.90;;;;;;5034048;28;20228;-82
2023/08/10 07:58:26;;;;;;;5.47;1.90;;;22.50;99.90;;;;;;5029022;28;20275;-81
2023/08/10 08:00:54;;;;;;;5.00;1.70;;;22.90;99.90;;;;;;5030614;28;20239;-79
2023/08/10 08:03:22;;;;;;;4.50;1.67;;;23.20;99.60;;;;;;5030872;28;20225;-79
2023/08/10 08:05:48;;;;;;;4.70;1.50;;;23.50;98.40;;;;;;5042337;28;20224;-79
2023/08/10 08:08:15;;;;;;;3.75;1.60;;;23.80;97.70;;;;;;5031103;28;20224;-79
2023/08/10 08:10:42;;;;;;;3.80;1.52;;;24.00;97.70;;;;;;5036406;28;20224;-79
2023/08/10 08:13:09;;;;;;;5.07;1.88;;;24.20;96.80;;;;;;5027364;28;20826;-79
2023/08/10 08:15:38;;;;;;;3.38;1.52;;;24.30;96.30;;;;;;5030570;28;20871;-80
2023/08/10 08:18:42;;;;;;;8.77;1.50;;;24.30;95.30;;;;;;5039224;28;20243;-80
2023/08/10 08:21:12;;;;;;;5.28;2.05;;;24.10;93.80;;;;;;5036446;28;20295;-80
2023/08/10 08:23:39;;;;;;;4.57;1.50;;;23.80;94.40;;;;;;5046039;28;20224;-80
2023/08/10 08:26:05;;;;;;;4.22;1.77;;;23.50;95.10;;;;;;5049185;28;20306;-79
2023/08/10 08:28:32;;;;;;;5.43;1.50;;;23.50;95.20;;;;;;5049935;28;20238;-80
2023/08/10 08:30:59;;;;;;;10.02;1.45;;;23.70;94.70;;;;;;5046667;28;20236;-80
2023/08/10 08:33:26;;;;;;;5.40;1.58;;;23.80;94.30;;;;;;5052097;28;20244;-80
2023/08/10 08:35:53;;;;;;;7.93;1.70;;;23.90;93.70;;;;;;5052211;28;20228;-80
2023/08/10 08:38:21;;;;;;;7.50;1.73;;;23.90;93.70;;;;;;5052340;28;20419;-79
2023/08/10 08:40:49;;;;;;;4.50;1.55;;;23.80;93.30;;;;;;5054090;28;20320;-79
2023/08/10 08:43:17;;;;;;;4.22;1.60;;;23.80;93.30;;;;;;5051465;28;20217;-79
2023/08/10 08:45:45;;;;;;;5.93;1.90;;;23.70;92.70;;;;;;5052637;28;20235;-79
2023/08/10 08:48:15;;;;;;;6.72;1.63;;;23.70;92.60;;;;;;5054756;28;20262;-79
2023/08/10 08:50:43;;;;;;;5.38;1.88;;;23.60;92.40;;;;;;5056478;28;20280;-80
2023/08/10 08:53:12;;;;;;;4.90;1.77;;;23.60;92.80;;;;;;5056354;28;20243;-80
2023/08/10 08:55:40;;;;;;;4.45;1.45;;;23.50;92.30;;;;;;5055011;28;20228;-79
2023/08/10 08:58:07;;;;;;;5.03;1.42;;;23.30;92.70;;;;;;5063524;28;20224;-79
2023/08/10 09:00:34;;;;;;;5.20;1.50;;;23.10;92.90;;;;;;5053543;28;20230;-80
2023/08/10 09:03:02;;;;;;;6.82;1.55;;;22.90;93.40;;;;;;5049923;28;20706;-79
2023/08/10 09:05:29;;;;;;;5.35;1.30;;;22.70;93.10;;;;;;5050968;28;20255;-80
2023/08/10 09:07:56;;;;;;;7.93;1.77;;;22.70;93.90;;;;;;5046971;28;20694;-80
2023/08/10 09:10:23;;;;;;;3.28;1.42;;;22.80;93.80;;;;;;5050979;28;20212;-80
2023/08/10 09:12:51;;;;;;;5.70;1.42;;;23.00;94.10;;;;;;5048218;28;20311;-80
2023/08/10 09:15:19;;;;;;;6.65;1.58;;;23.40;94.20;;;;;;5051380;28;20316;-80
2023/08/10 09:17:48;;;;;;;7.25;1.80;;;23.90;93.40;;;;;;5048259;28;20898;-80
2023/08/10 09:20:19;;;;;;;4.13;1.42;;;24.30;92.20;;;;;;5050893;28;20228;-80
2023/08/10 09:22:47;;;;;;;6.07;1.50;;;24.60;91.20;;;;;;5047794;28;20295;-80
2023/08/10 09:25:14;;;;;;;5.20;1.88;;;24.80;91.50;;;;;;5052279;28;20716;-80
2023/08/10 09:27:40;;;;;;;6.45;1.80;;;24.80;91.10;;;;;;5070005;28;20238;-80
2023/08/10 09:30:09;;;;;;;7.00;1.35;;;24.70;89.50;;;;;;5045177;28;20240;-80
2023/08/10 09:32:36;;;;;;;5.22;1.70;;;24.40;87.40;;;;;;5046974;28;20220;-80
2023/08/10 09:35:05;;;;;;;4.80;1.30;;;24.20;89.90;;;;;;5047491;28;20248;-80
2023/08/10 09:37:32;;;;;;;4.75;1.52;;;24.10;89.20;;;;;;5053366;28;20224;-79
2023/08/10 09:40:04;;;;;;;2.80;1.50;;;24.30;89.80;;;;;;5047890;28;20226;-79
2023/08/10 09:42:32;;;;;;;5.18;1.85;;;24.50;90.10;;;;;;5050271;28;20224;-81
2023/08/10 09:45:00;;;;;;;6.93;1.50;;;24.90;90.50;;;;;;5053218;28;20223;-81
2023/08/10 09:47:28;;;;;;;5.57;1.52;;;25.40;90.40;;;;;;5065173;28;20224;-80
2023/08/10 09:49:56;;;;;;;4.40;1.27;;;25.90;88.90;;;;;;5049504;28;20224;-80
2023/08/10 09:52:24;;;;;;;4.28;1.40;;;26.40;87.10;;;;;;5050535;28;20260;-81
2023/08/10 09:54:52;;;;;;;3.28;1.40;;;26.80;86.00;;;;;;5046914;28;20708;-81
2023/08/10 09:57:20;;;;;;;5.55;1.63;;;27.30;83.40;;;;;;5047256;28;20227;-81
2023/08/10 09:59:47;;;;;;;6.35;1.60;;;27.60;81.40;;;;;;5051631;28;20819;-80
2023/08/10 10:02:16;;;;;;;4.18;1.40;;;27.80;77.50;;;;;;5047773;28;20212;-80
2023/08/10 10:04:44;;;;;;;3.67;1.35;;;27.80;76.30;;;;;;5050266;28;20721;-80
2023/08/10 10:07:12;;;;;;;6.30;1.40;;;27.80;75.60;;;;;;5050955;28;20824;-80
2023/08/10 10:09:43;;;;;;;4.57;1.55;;;27.60;76.30;;;;;;5049554;28;20236;-80
2023/08/10 10:12:11;;;;;;;5.53;1.38;;;27.40;75.60;;;;;;5038177;28;20229;-80
2023/08/10 10:14:40;;;;;;;6.88;1.67;;;27.20;77.60;;;;;;5053723;28;20294;-80
2023/08/10 10:17:07;;;;;;;4.05;1.27;;;27.10;74.60;;;;;;5050028;28;20214;-81
2023/08/10 10:19:34;;;;;;;3.78;1.50;;;27.00;74.80;;;;;;5048689;28;20238;-81
2023/08/10 10:22:03;;;;;;;5.57;1.42;;;27.00;76.80;;;;;;5049400;28;20228;-81
2023/08/10 10:24:31;;;;;;;5.18;1.60;;;27.00;74.30;;;;;;5048559;28;20220;-80
2023/08/10 10:27:00;;;;;;;4.57;1.45;;;27.00;75.20;;;;;;5064123;28;20239;-79
2023/08/10 10:29:37;;;;;;;6.97;1.50;;;27.00;73.90;;;;;;5034422;28;20321;-79
2023/08/10 10:32:12;;;;;;;4.40;1.48;;;26.70;73.70;;;;;;5048332;28;20228;-80
2023/08/10 10:34:40;;;;;;;8.27;1.85;;;26.50;72.40;;;;;;5061028;28;20226;-79
2023/08/10 10:37:10;;;;;;;4.35;1.80;;;26.20;73.10;;;;;;5064698;28;20243;-80
2023/08/10 10:39:39;;;;;;;6.55;1.83;;;25.80;73.40;;;;;;5042358;28;20228;-80
2023/08/10 10:42:06;;;;;;;3.95;1.40;;;25.40;74.30;;;;;;5044499;28;20216;-80
2023/08/10 10:45:03;;;;;;;4.95;1.33;;;25.10;75.90;;;;;;5044661;28;20302;-79
2023/08/10 10:47:37;;;;;;;5.40;1.70;;;24.90;75.00;;;;;;5032816;28;20308;-80
2023/08/10 10:50:19;;;;;;;4.93;1.73;;;25.00;77.20;;;;;;5047300;28;20310;-80
2023/08/10 10:52:57;;;;;;;5.13;1.52;;;25.10;77.40;;;;;;5061790;28;20230;-80
2023/08/10 10:55:25;;;;;;;4.40;1.33;;;25.20;78.30;;;;;;5041422;28;20571;-80
2023/08/10 10:57:52;;;;;;;5.57;1.67;;;25.40;78.10;;;;;;5051023;28;20245;-80
2023/08/10 11:00:20;;;;;;;6.85;1.65;;;25.60;77.60;;;;;;5046264;28;21662;-79
2023/08/10 11:02:47;;;;;;;4.05;1.40;;;25.80;76.10;;;;;;5046323;28;21842;-79
2023/08/10 11:05:15;;;;;;;5.55;1.58;;;26.00;76.10;;;;;;5048169;28;20298;-80
2023/08/10 11:07:43;;;;;;;3.90;1.20;;;26.30;75.60;;;;;;5049243;28;20228;-80
2023/08/10 11:10:12;;;;;;;4.57;1.40;;;26.40;74.70;;;;;;5048760;28;20230;-80
2023/08/10 11:12:40;;;;;;;3.33;1.38;;;26.40;73.50;;;;;;5041588;28;20251;-80
2023/08/10 11:15:09;;;;;;;5.32;1.50;;;26.40;73.90;;;;;;5048046;28;20250;-80
2023/08/10 11:17:35;;;;;;;4.95;1.50;;;26.40;73.50;;;;;;5046674;28;20273;-80
2023/08/10 11:20:06;;;;;;;4.82;1.50;;;26.40;73.40;;;;;;5043573;28;20311;-80
2023/08/10 11:22:37;;;;;;;3.70;1.33;;;26.40;73.40;;;;;;5041728;28;20244;-81
2023/08/10 11:25:08;;;;;;;4.68;1.63;;;26.50;74.10;;;;;;5048920;28;20239;-80
2023/08/10 11:27:37;;;;;;;3.53;1.35;;;26.60;73.30;;;;;;5045188;28;20247;-80
2023/08/10 11:30:05;;;;;;;6.47;1.77;;;26.70;73.20;;;;;;5046518;28;20690;-80
2023/08/10 11:32:32;;;;;;;4.50;1.30;;;26.90;72.00;;;;;;5052489;28;20211;-80
2023/08/10 11:34:59;;;;;;;5.20;1.50;;;27.10;71.20;;;;;;5055473;28;20262;-80
2023/08/10 11:37:30;;;;;;;6.78;1.90;;;27.20;69.80;;;;;;5050361;28;20220;-80
2023/08/10 11:40:05;;;;;;;5.60;1.20;;;27.20;68.60;;;;;;5050404;28;20220;-80
2023/08/10 11:42:36;;;;;;;2.75;1.23;;;27.30;69.20;;;;;;5052166;28;20661;-80
2023/08/10 11:45:08;;;;;;;8.48;1.50;;;27.20;68.50;;;;;;5056381;28;20226;-80
2023/08/10 11:47:43;;;;;;;4.00;1.33;;;27.20;68.10;;;;;;5052042;28;20299;-80
2023/08/10 11:50:11;;;;;;;6.35;1.70;;;27.00;67.10;;;;;;5049591;28;20310;-80
2023/08/10 11:52:40;;;;;;;4.65;1.55;;;26.80;66.90;;;;;;5040842;28;20805;-80
2023/08/10 11:55:12;;;;;;;4.15;1.58;;;26.60;67.50;;;;;;5051257;28;20406;-80
2023/08/10 11:57:42;;;;;;;2.17;1.02;;;26.40;69.20;;;;;;5051270;28;20228;-80
2023/08/10 12:00:23;;;;;;;5.50;1.52;;;26.40;69.30;;;;;;5043520;28;20405;-80
2023/08/10 12:03:02;;;;;;;4.90;1.38;;;26.40;68.80;;;;;;5048873;28;20500;-80
2023/08/10 12:05:40;;;;;;;3.92;1.25;;;26.30;66.00;;;;;;5065285;28;21032;-80
2023/08/10 12:08:08;;;;;;;3.75;1.27;;;26.30;66.00;;;;;;5051804;28;20821;-80
2023/08/10 12:10:36;;;;;;;3.47;1.05;;;26.30;67.60;;;;;;5049869;28;20274;-80
2023/08/10 12:13:06;;;;;;;4.13;1.35;;;26.30;68.50;;;;;;5046550;28;20232;-80
2023/08/10 12:15:36;;;;;;;3.90;1.42;;;26.40;68.70;;;;;;5051352;28;20227;-80
2023/08/10 12:18:03;;;;;;;3.42;1.25;;;26.50;68.80;;;;;;5049811;28;20255;-80
2023/08/10 12:20:30;;;;;;;5.50;1.38;;;26.50;67.60;;;;;;5042915;28;20703;-80
2023/08/10 12:22:56;;;;;;;4.22;1.50;;;26.40;67.80;;;;;;5043752;28;20710;-80
2023/08/10 12:25:23;;;;;;;2.60;1.17;;;26.30;68.50;;;;;;5050669;28;20238;-80
2023/08/10 12:27:50;;;;;;;3.90;1.50;;;26.20;68.20;;;;;;5049570;28;20228;-80
2023/08/10 12:30:18;;;;;;;7.30;1.70;;;26.20;68.40;;;;;;5043771;28;20678;-80
2023/08/10 12:32:45;;;;;;;7.03;1.60;;;26.10;66.40;;;;;;5047961;28;20244;-80
2023/08/10 12:35:12;;;;;;;5.13;1.48;;;25.90;66.40;;;;;;5044918;28;20243;-79
2023/08/10 12:37:39;;;;;;;3.83;1.40;;;25.80;67.10;;;;;;5042929;28;20224;-80
2023/08/10 12:40:08;;;;;;;3.90;1.30;;;25.60;67.80;;;;;;5046806;28;20737;-80
2023/08/10 12:42:34;;;;;;;5.90;1.20;;;25.60;69.30;;;;;;5049350;28;20642;-81
2023/08/10 12:45:01;;;;;;;4.30;1.40;;;25.60;67.80;;;;;;5052983;28;20271;-80
2023/08/10 12:47:29;;;;;;;4.00;1.20;;;25.60;67.40;;;;;;5041415;28;20251;-80
2023/08/10 12:49:56;;;;;;;4.00;1.52;;;25.70;66.40;;;;;;5049219;28;20243;-80
2023/08/10 12:52:22;;;;;;;3.83;1.52;;;25.60;65.00;;;;;;5040968;28;20228;-80
2023/08/10 12:54:49;;;;;;;4.85;1.38;;;25.40;64.40;;;;;;5048305;28;20717;-80